Time;durP1;ratioP1;P1;durP2;ratioP2;P2;SDS_P1;SDS_P2;PMS_P1;PMS_P2;Temp;Humidity;BMP_temperature;BMP_pressure;BME280_temperature;BME280_humidity;BME280_pressure;Samples;Min_cycle;Max_cycle;Signal;HPM_P1;HPM_P2
2023/09/15 00:01:34;;;;;;;6.18;2.10;;;13.80;99.90;;;;;;5016233;28;20126;-88
2023/09/15 00:04:04;;;;;;;5.63;1.90;;;13.70;99.90;;;;;;5048723;28;20148;-88
2023/09/15 00:06:30;;;;;;;7.07;2.10;;;13.60;99.90;;;;;;5016391;28;20037;-87
2023/09/15 00:08:57;;;;;;;8.75;3.40;;;13.60;99.90;;;;;;5033058;28;20048;-88
2023/09/15 00:11:23;;;;;;;7.75;1.85;;;13.60;99.90;;;;;;5032798;28;20040;-87
2023/09/15 00:13:49;;;;;;;10.38;3.53;;;13.60;99.90;;;;;;5032963;28;20500;-88
2023/09/15 00:16:14;;;;;;;7.65;2.50;;;13.60;99.90;;;;;;5016166;28;20570;-88
2023/09/15 00:18:41;;;;;;;8.57;3.40;;;13.50;99.90;;;;;;5032516;28;20037;-87
2023/09/15 00:21:09;;;;;;;9.13;1.90;;;13.50;99.90;;;;;;5033159;28;20091;-88
2023/09/15 00:23:37;;;;;;;10.35;3.45;;;13.40;99.90;;;;;;5016849;28;20049;-88
2023/09/15 00:26:03;;;;;;;8.40;3.45;;;13.40;99.90;;;;;;5016199;28;20044;-88
2023/09/15 00:28:29;;;;;;;5.07;1.95;;;13.50;99.90;;;;;;5016151;28;20072;-88
2023/09/15 00:30:58;;;;;;;8.52;2.03;;;13.40;99.90;;;;;;5016560;28;20059;-88
2023/09/15 00:33:23;;;;;;;9.13;2.10;;;13.30;99.90;;;;;;5016018;28;20648;-88
2023/09/15 00:35:49;;;;;;;9.27;2.13;;;13.30;99.90;;;;;;5032816;28;20056;-88
2023/09/15 00:38:15;;;;;;;8.77;3.70;;;13.30;99.90;;;;;;5031881;28;20492;-88
2023/09/15 00:40:40;;;;;;;8.73;3.17;;;13.30;99.90;;;;;;5033028;28;20045;-88
2023/09/15 00:43:06;;;;;;;5.85;2.30;;;13.40;99.90;;;;;;5036453;28;20044;-88
2023/09/15 00:45:32;;;;;;;8.30;2.25;;;13.30;99.90;;;;;;5035794;28;20037;-88
2023/09/15 00:47:58;;;;;;;6.90;1.98;;;13.20;99.90;;;;;;5035177;28;20036;-88
2023/09/15 00:50:26;;;;;;;9.85;3.40;;;13.20;99.90;;;;;;5035815;28;20412;-88
2023/09/15 00:52:55;;;;;;;10.00;3.08;;;13.30;99.90;;;;;;5035979;28;20208;-88
2023/09/15 00:55:22;;;;;;;5.93;1.83;;;13.30;99.90;;;;;;5035191;28;20176;-88
2023/09/15 00:57:51;;;;;;;8.30;1.85;;;13.20;99.90;;;;;;5017937;28;20045;-88
2023/09/15 01:00:17;;;;;;;9.40;3.58;;;13.20;99.90;;;;;;5033838;28;20047;-88
2023/09/15 01:02:44;;;;;;;6.47;2.08;;;13.20;99.90;;;;;;5030833;28;20408;-88
2023/09/15 01:05:16;;;;;;;5.55;2.30;;;13.10;99.90;;;;;;5019675;28;20442;-88
2023/09/15 01:07:43;;;;;;;11.65;3.92;;;13.00;99.90;;;;;;5035700;28;20043;-88
2023/09/15 01:10:09;;;;;;;5.65;1.85;;;13.10;99.90;;;;;;5036005;28;20041;-88
2023/09/15 01:12:34;;;;;;;8.98;3.58;;;13.00;99.90;;;;;;5019259;28;20044;-88
2023/09/15 01:15:02;;;;;;;5.50;2.03;;;13.00;99.90;;;;;;5032440;28;20063;-88
2023/09/15 01:17:34;;;;;;;7.15;1.98;;;13.00;99.90;;;;;;5018886;28;20431;-88
2023/09/15 01:20:10;;;;;;;9.25;3.55;;;12.90;99.90;;;;;;5032072;28;20053;-88
2023/09/15 01:23:03;;;;;;;7.88;2.10;;;13.00;99.90;;;;;;5019516;28;20476;-88
2023/09/15 01:25:53;;;;;;;7.97;1.98;;;12.90;99.90;;;;;;5032530;28;20448;-88
2023/09/15 01:28:28;;;;;;;9.55;3.60;;;12.80;99.90;;;;;;5033595;28;20037;-88
2023/09/15 01:30:54;;;;;;;4.60;1.75;;;12.90;99.90;;;;;;5034976;28;20095;-89
2023/09/15 01:33:21;;;;;;;7.72;2.42;;;12.80;99.90;;;;;;5019066;28;20037;-89
2023/09/15 01:35:47;;;;;;;8.73;2.70;;;12.80;99.90;;;;;;5035526;28;20040;-88
2023/09/15 01:38:12;;;;;;;10.75;3.58;;;12.80;99.90;;;;;;5017556;28;20097;-88
2023/09/15 01:40:38;;;;;;;9.80;3.58;;;12.80;99.90;;;;;;5035772;28;20045;-88
2023/09/15 01:43:04;;;;;;;8.32;3.25;;;12.90;99.90;;;;;;5035514;28;20415;-88
2023/09/15 01:45:30;;;;;;;10.07;2.10;;;12.90;99.90;;;;;;5018671;28;20044;-88
2023/09/15 01:47:57;;;;;;;5.95;2.10;;;12.80;99.90;;;;;;5018526;28;20041;-88
2023/09/15 01:50:23;;;;;;;11.48;2.00;;;12.80;99.90;;;;;;5034917;28;20041;-88
2023/09/15 01:52:50;;;;;;;9.50;3.75;;;12.80;99.90;;;;;;5034630;28;20037;-88
2023/09/15 01:55:16;;;;;;;6.57;1.95;;;12.80;99.90;;;;;;5035099;28;20045;-88
2023/09/15 01:57:41;;;;;;;8.32;3.28;;;12.80;99.90;;;;;;5031129;28;20076;-88
2023/09/15 02:00:08;;;;;;;9.75;3.55;;;12.80;99.90;;;;;;5032134;28;20076;-88
2023/09/15 02:02:33;;;;;;;8.18;1.95;;;12.90;99.90;;;;;;5035246;28;20049;-88
2023/09/15 02:04:59;;;;;;;7.88;2.47;;;12.80;99.90;;;;;;5035147;28;20037;-88
2023/09/15 02:07:25;;;;;;;9.35;3.30;;;12.70;99.90;;;;;;5034794;28;20622;-88
2023/09/15 02:09:50;;;;;;;10.25;3.88;;;12.80;99.90;;;;;;5034388;28;20039;-88
2023/09/15 02:12:16;;;;;;;6.65;2.25;;;12.80;99.90;;;;;;5034528;28;20036;-88
2023/09/15 02:14:41;;;;;;;9.32;2.22;;;12.80;99.90;;;;;;5034380;28;20083;-88
2023/09/15 02:17:07;;;;;;;6.97;1.98;;;12.70;99.90;;;;;;5017773;28;20044;-88
2023/09/15 02:19:33;;;;;;;4.47;1.77;;;12.60;99.90;;;;;;5017737;28;20411;-88
2023/09/15 02:21:59;;;;;;;9.77;3.88;;;12.60;99.90;;;;;;5034792;28;20049;-87
2023/09/15 02:24:26;;;;;;;10.90;4.00;;;12.70;99.90;;;;;;5018245;28;20033;-88
2023/09/15 02:26:51;;;;;;;6.05;2.25;;;12.70;99.90;;;;;;5017806;28;20216;-87
2023/09/15 02:29:17;;;;;;;6.35;1.95;;;12.70;99.90;;;;;;5034684;28;20611;-88
2023/09/15 02:31:42;;;;;;;9.32;3.75;;;12.60;99.90;;;;;;5034213;28;20483;-88
2023/09/15 02:34:08;;;;;;;5.80;1.98;;;12.60;99.90;;;;;;5034499;28;20037;-88
2023/09/15 02:36:34;;;;;;;8.98;4.00;;;12.60;99.90;;;;;;5034127;28;20040;-88
2023/09/15 02:38:59;;;;;;;7.10;2.08;;;12.60;99.90;;;;;;5033445;28;20048;-88
2023/09/15 02:41:25;;;;;;;7.35;2.25;;;12.60;99.90;;;;;;5017923;28;20049;-88
2023/09/15 02:43:50;;;;;;;8.55;3.47;;;12.50;99.90;;;;;;5017797;28;20045;-88
2023/09/15 02:46:16;;;;;;;9.45;2.53;;;12.60;99.90;;;;;;5034308;28;20048;-88
2023/09/15 02:48:42;;;;;;;10.60;2.42;;;12.60;99.90;;;;;;5014376;28;20124;-88
2023/09/15 02:51:08;;;;;;;9.25;2.55;;;12.50;99.90;;;;;;5015410;28;20040;-88
2023/09/15 02:53:33;;;;;;;5.53;2.10;;;12.50;99.90;;;;;;5033931;28;20087;-88
2023/09/15 02:56:05;;;;;;;6.40;2.50;;;12.50;99.90;;;;;;5017499;28;20479;-89
2023/09/15 02:58:34;;;;;;;11.75;3.72;;;12.40;99.90;;;;;;5033319;28;20067;-88
2023/09/15 03:01:00;;;;;;;9.20;2.42;;;12.50;99.90;;;;;;5033228;28;20518;-88
2023/09/15 03:03:25;;;;;;;7.55;1.90;;;12.40;99.90;;;;;;5033562;28;20040;-88
2023/09/15 03:06:05;;;;;;;11.88;4.13;;;12.40;99.90;;;;;;5017351;28;20041;-88
2023/09/15 03:08:31;;;;;;;11.02;3.75;;;12.50;99.90;;;;;;5033771;28;20116;-88
2023/09/15 03:10:56;;;;;;;6.30;2.22;;;12.50;99.90;;;;;;5039983;28;20088;-87
2023/09/15 03:13:22;;;;;;;9.35;3.42;;;12.40;99.90;;;;;;5031941;28;20028;-86
2023/09/15 03:15:48;;;;;;;4.85;2.17;;;12.40;99.90;;;;;;5034630;28;20519;-88
2023/09/15 03:18:13;;;;;;;5.47;1.88;;;12.30;99.90;;;;;;5033956;28;20416;-88
2023/09/15 03:20:39;;;;;;;8.65;3.53;;;12.30;99.90;;;;;;5034013;28;20128;-88
2023/09/15 03:23:04;;;;;;;7.78;1.95;;;12.30;99.90;;;;;;5018255;28;20041;-88
2023/09/15 03:25:30;;;;;;;8.63;2.33;;;12.30;99.90;;;;;;5017585;28;20408;-88
2023/09/15 03:27:55;;;;;;;6.15;2.55;;;12.20;99.90;;;;;;5030531;28;20096;-88
2023/09/15 03:30:21;;;;;;;7.45;2.00;;;12.20;99.90;;;;;;5033684;28;20033;-88
2023/09/15 03:32:47;;;;;;;9.02;3.70;;;12.10;99.90;;;;;;5030443;28;20233;-87
2023/09/15 03:35:13;;;;;;;6.55;2.17;;;12.20;99.90;;;;;;5033130;28;20412;-88
2023/09/15 03:37:39;;;;;;;6.72;2.75;;;12.20;99.90;;;;;;5033306;28;20059;-88
2023/09/15 03:40:07;;;;;;;10.57;3.90;;;12.10;99.90;;;;;;5033037;28;20499;-88
2023/09/15 03:42:34;;;;;;;10.77;4.20;;;12.10;99.90;;;;;;5033692;28;20051;-88
2023/09/15 03:44:59;;;;;;;11.15;4.25;;;12.20;99.90;;;;;;5017281;28;20037;-88
2023/09/15 03:47:25;;;;;;;6.60;1.95;;;12.20;99.90;;;;;;5033431;28;20120;-88
2023/09/15 03:49:51;;;;;;;5.40;2.10;;;12.10;99.90;;;;;;5033254;28;20033;-88
2023/09/15 03:52:17;;;;;;;6.18;2.00;;;12.00;99.90;;;;;;5033060;28;20120;-89
2023/09/15 03:54:42;;;;;;;8.70;2.72;;;12.00;99.90;;;;;;5033169;28;20198;-88
2023/09/15 03:57:08;;;;;;;6.75;2.30;;;12.00;99.90;;;;;;5032054;28;20033;-87
2023/09/15 03:59:34;;;;;;;8.93;2.20;;;11.90;99.90;;;;;;5031932;28;20460;-88
2023/09/15 04:02:00;;;;;;;7.43;2.13;;;11.90;99.90;;;;;;5016655;28;20048;-88
2023/09/15 04:04:26;;;;;;;5.57;2.08;;;11.90;99.90;;;;;;5033736;28;20045;-88
2023/09/15 04:06:53;;;;;;;6.78;2.10;;;11.80;99.90;;;;;;5032893;28;20099;-88
2023/09/15 04:09:19;;;;;;;10.15;4.13;;;11.80;99.90;;;;;;5032852;28;20037;-88
2023/09/15 04:11:44;;;;;;;8.18;2.20;;;11.90;99.90;;;;;;5033260;28;20090;-88
2023/09/15 04:14:10;;;;;;;9.65;3.92;;;11.90;99.90;;;;;;5032466;28;20040;-88
2023/09/15 04:16:37;;;;;;;6.28;2.30;;;11.90;99.90;;;;;;5019906;28;20052;-88
2023/09/15 04:19:04;;;;;;;7.72;2.30;;;11.90;99.90;;;;;;5019325;28;20037;-88
2023/09/15 04:21:30;;;;;;;6.70;2.38;;;11.80;99.90;;;;;;5019874;28;20068;-88
2023/09/15 04:23:55;;;;;;;8.00;3.95;;;11.80;99.90;;;;;;5020812;28;20462;-88
2023/09/15 04:26:21;;;;;;;6.72;2.35;;;11.80;99.90;;;;;;5036625;28;20059;-88
2023/09/15 04:28:46;;;;;;;7.88;2.60;;;11.80;99.90;;;;;;5020029;28;20033;-88
2023/09/15 04:31:12;;;;;;;10.60;4.40;;;11.70;99.90;;;;;;5036554;28;20094;-88
2023/09/15 04:33:38;;;;;;;7.47;2.28;;;11.80;99.90;;;;;;5036856;28;20048;-88
2023/09/15 04:36:03;;;;;;;9.38;4.20;;;11.80;99.90;;;;;;5019950;28;20690;-88
2023/09/15 04:38:30;;;;;;;6.40;2.40;;;11.80;99.90;;;;;;5019338;28;20111;-88
2023/09/15 04:40:56;;;;;;;7.15;2.25;;;11.80;99.90;;;;;;5019593;28;20044;-88
2023/09/15 04:43:21;;;;;;;5.47;2.15;;;11.70;99.90;;;;;;5036760;28;20040;-88
2023/09/15 04:45:47;;;;;;;8.55;2.50;;;11.70;99.90;;;;;;5020108;28;20048;-88
2023/09/15 04:48:13;;;;;;;8.73;3.33;;;11.70;99.90;;;;;;5018985;28;20044;-88
2023/09/15 04:50:38;;;;;;;11.73;4.38;;;11.70;99.90;;;;;;5036445;28;20095;-88
2023/09/15 04:53:07;;;;;;;10.88;2.42;;;11.70;99.90;;;;;;5036473;28;20037;-88
2023/09/15 04:55:33;;;;;;;6.63;3.15;;;11.70;99.90;;;;;;5036238;28;20519;-88
2023/09/15 04:57:59;;;;;;;7.93;2.33;;;11.70;99.90;;;;;;5019240;28;20037;-88
2023/09/15 05:00:26;;;;;;;7.75;2.42;;;11.70;99.90;;;;;;5019522;28;20558;-88
2023/09/15 05:02:52;;;;;;;9.32;2.90;;;11.60;99.90;;;;;;5036629;28;20055;-88
2023/09/15 05:05:18;;;;;;;11.07;5.00;;;11.60;99.90;;;;;;5034982;28;20045;-88
2023/09/15 05:07:44;;;;;;;7.65;2.58;;;11.70;99.90;;;;;;5035693;28;20033;-88
2023/09/15 05:10:09;;;;;;;6.47;2.35;;;11.70;99.90;;;;;;5018944;28;20037;-88
2023/09/15 05:12:35;;;;;;;7.90;2.92;;;11.60;99.90;;;;;;5035818;28;20037;-88
2023/09/15 05:15:03;;;;;;;6.60;2.22;;;11.60;99.90;;;;;;5035615;28;20037;-88
2023/09/15 05:17:28;;;;;;;8.55;2.75;;;11.50;99.90;;;;;;5035492;28;20159;-89
2023/09/15 05:19:56;;;;;;;9.73;4.72;;;11.50;99.90;;;;;;5035315;28;20182;-88
2023/09/15 05:22:22;;;;;;;10.50;4.80;;;11.60;99.90;;;;;;5019350;28;20041;-88
2023/09/15 05:24:47;;;;;;;9.68;4.57;;;11.60;99.90;;;;;;5036059;28;20056;-88
2023/09/15 05:27:13;;;;;;;9.45;4.70;;;11.70;99.90;;;;;;5019630;28;20048;-88
2023/09/15 05:29:39;;;;;;;12.02;2.80;;;11.70;99.90;;;;;;5035455;28;20052;-88
2023/09/15 05:32:05;;;;;;;7.53;2.60;;;11.70;99.90;;;;;;5035969;28;20408;-88
2023/09/15 05:34:30;;;;;;;7.57;2.90;;;11.60;99.90;;;;;;5035544;28;20132;-88
2023/09/15 05:36:56;;;;;;;8.07;2.60;;;11.50;99.90;;;;;;5031743;28;20068;-87
2023/09/15 05:39:22;;;;;;;7.82;2.67;;;11.50;99.90;;;;;;5017649;28;20041;-88
2023/09/15 05:41:48;;;;;;;6.68;2.50;;;11.50;99.90;;;;;;5018533;28;20040;-88
2023/09/15 05:44:15;;;;;;;10.65;5.00;;;11.50;99.90;;;;;;5035384;28;20052;-88
2023/09/15 05:46:42;;;;;;;6.10;2.35;;;11.60;99.90;;;;;;5018816;28;20524;-89
2023/09/15 05:49:07;;;;;;;6.10;2.38;;;11.60;99.90;;;;;;5035037;28;20439;-88
2023/09/15 05:51:33;;;;;;;9.23;2.90;;;11.50;99.90;;;;;;5035383;28;20037;-88
2023/09/15 05:53:58;;;;;;;7.13;2.55;;;11.50;99.90;;;;;;5035302;28;20083;-88
2023/09/15 05:56:24;;;;;;;8.77;4.88;;;11.50;99.90;;;;;;5018008;28;20072;-88
2023/09/15 05:58:50;;;;;;;9.45;4.60;;;11.60;99.90;;;;;;5034213;28;20036;-88
2023/09/15 06:01:17;;;;;;;7.10;2.58;;;11.70;99.90;;;;;;5037012;28;20037;-88
2023/09/15 06:03:43;;;;;;;8.10;2.75;;;11.70;99.90;;;;;;5023950;28;20044;-88
2023/09/15 06:06:09;;;;;;;8.07;2.97;;;11.70;99.90;;;;;;5018499;28;20033;-88
2023/09/15 06:08:34;;;;;;;12.05;5.25;;;11.70;99.90;;;;;;5017277;28;20455;-87
2023/09/15 06:11:00;;;;;;;8.80;3.13;;;11.70;99.90;;;;;;5034640;28;20037;-88
2023/09/15 06:13:25;;;;;;;8.05;2.78;;;11.80;99.90;;;;;;5034117;28;20037;-88
2023/09/15 06:15:51;;;;;;;9.93;2.92;;;11.70;99.90;;;;;;5018046;28;20086;-88
2023/09/15 06:18:17;;;;;;;6.25;2.63;;;11.70;99.90;;;;;;5034024;28;20052;-88
2023/09/15 06:20:42;;;;;;;8.55;2.72;;;11.70;99.90;;;;;;5034401;28;20043;-88
2023/09/15 06:23:08;;;;;;;8.20;3.20;;;11.80;99.90;;;;;;5034383;28;20507;-88
2023/09/15 06:25:34;;;;;;;9.73;5.20;;;11.80;99.90;;;;;;5034854;28;20043;-88
2023/09/15 06:28:00;;;;;;;10.70;3.08;;;11.90;99.90;;;;;;5035962;28;20052;-88
2023/09/15 06:30:27;;;;;;;6.75;2.50;;;11.90;99.90;;;;;;5031226;28;20403;-88
2023/09/15 06:32:55;;;;;;;7.18;2.72;;;11.90;99.90;;;;;;5031137;28;20044;-89
2023/09/15 06:35:22;;;;;;;12.55;6.30;;;11.90;99.90;;;;;;5033584;28;20052;-88
2023/09/15 06:37:50;;;;;;;11.40;4.38;;;12.00;99.90;;;;;;5016889;28;20214;-89
2023/09/15 06:40:15;;;;;;;7.55;2.53;;;12.10;99.90;;;;;;5015936;28;20133;-88
2023/09/15 06:42:41;;;;;;;7.18;2.75;;;12.00;99.90;;;;;;5017024;28;20128;-88
2023/09/15 06:45:07;;;;;;;7.68;2.50;;;12.10;99.90;;;;;;5034285;28;20512;-88
2023/09/15 06:47:33;;;;;;;8.15;3.03;;;12.10;99.90;;;;;;5017315;28;20499;-88
2023/09/15 06:49:58;;;;;;;8.68;3.10;;;12.10;99.90;;;;;;5034088;28;20033;-88
2023/09/15 06:52:24;;;;;;;6.38;2.78;;;12.20;99.90;;;;;;5033889;28;20520;-88
2023/09/15 06:54:49;;;;;;;5.55;2.50;;;12.20;99.90;;;;;;5017980;28;20029;-89
2023/09/15 06:57:15;;;;;;;8.80;2.80;;;12.30;99.90;;;;;;5033596;28;20036;-88
2023/09/15 06:59:41;;;;;;;7.70;3.10;;;12.30;99.90;;;;;;5033617;28;20546;-86
2023/09/15 07:02:06;;;;;;;12.77;3.97;;;12.40;99.90;;;;;;5033506;28;20484;-88
2023/09/15 07:04:32;;;;;;;8.60;2.85;;;12.40;99.90;;;;;;5017556;28;20120;-89
2023/09/15 07:06:57;;;;;;;7.55;3.03;;;12.50;99.90;;;;;;5033991;28;20041;-88
2023/09/15 07:09:24;;;;;;;11.40;5.90;;;12.60;99.90;;;;;;5033696;28;20033;-88
2023/09/15 07:11:49;;;;;;;7.53;3.83;;;12.70;99.90;;;;;;5017564;28;20041;-87
2023/09/15 07:14:15;;;;;;;8.95;2.92;;;12.70;99.90;;;;;;5017442;28;20039;-88
2023/09/15 07:16:43;;;;;;;19.17;4.00;;;12.80;99.90;;;;;;5017047;28;20412;-88
2023/09/15 07:19:09;;;;;;;7.07;2.40;;;12.80;99.90;;;;;;5016292;28;20052;-88
2023/09/15 07:21:37;;;;;;;6.57;2.58;;;12.90;99.90;;;;;;5032894;28;20111;-88
2023/09/15 07:24:04;;;;;;;10.20;5.22;;;13.00;99.90;;;;;;5033751;28;20045;-87
2023/09/15 07:26:29;;;;;;;9.95;3.22;;;13.10;99.90;;;;;;5029915;28;20091;-88
2023/09/15 07:28:55;;;;;;;7.40;2.58;;;13.10;99.90;;;;;;5029523;28;20040;-88
2023/09/15 07:31:21;;;;;;;7.80;3.17;;;13.20;99.90;;;;;;5016531;28;20049;-88
2023/09/15 07:33:47;;;;;;;11.52;4.82;;;13.20;99.90;;;;;;5032699;28;20541;-88
2023/09/15 07:36:13;;;;;;;7.00;2.83;;;13.40;99.90;;;;;;5033059;28;20078;-88
2023/09/15 07:38:38;;;;;;;10.10;3.33;;;13.50;99.90;;;;;;5032668;28;20049;-88
2023/09/15 07:41:04;;;;;;;10.23;3.38;;;13.50;99.90;;;;;;5033056;28;20362;-88
2023/09/15 07:43:30;;;;;;;7.53;3.20;;;13.50;99.90;;;;;;5033310;28;20048;-88
2023/09/15 07:45:56;;;;;;;11.15;4.70;;;13.60;99.90;;;;;;5034365;28;20040;-88
2023/09/15 07:48:21;;;;;;;8.80;3.30;;;13.80;99.90;;;;;;5032978;28;20120;-88
2023/09/15 07:50:48;;;;;;;11.20;4.95;;;13.80;99.90;;;;;;5034577;28;20171;-88
2023/09/15 07:53:13;;;;;;;9.70;3.05;;;13.90;99.90;;;;;;5037686;28;20087;-88
2023/09/15 07:55:39;;;;;;;9.73;3.28;;;14.00;99.90;;;;;;5037525;28;20440;-87
2023/09/15 07:58:05;;;;;;;8.55;3.15;;;14.10;99.90;;;;;;5036546;28;20041;-88
2023/09/15 08:00:31;;;;;;;7.82;3.10;;;14.10;99.90;;;;;;5036723;28;20051;-88
2023/09/15 08:02:56;;;;;;;10.60;5.00;;;14.20;99.90;;;;;;5020466;28;20133;-88
2023/09/15 08:05:23;;;;;;;6.97;3.00;;;14.30;99.90;;;;;;5020748;28;20037;-88
2023/09/15 08:07:49;;;;;;;10.02;4.88;;;14.40;99.90;;;;;;5016911;28;20041;-88
2023/09/15 08:10:18;;;;;;;12.40;5.57;;;14.60;99.90;;;;;;5036646;28;20036;-88
2023/09/15 08:12:43;;;;;;;9.23;4.88;;;14.70;99.90;;;;;;5036400;28;20064;-88
2023/09/15 08:15:10;;;;;;;8.23;2.60;;;14.80;99.90;;;;;;5023463;28;20075;-89
2023/09/15 08:17:36;;;;;;;6.47;2.00;;;14.90;99.90;;;;;;5038553;28;20041;-89
2023/09/15 08:20:03;;;;;;;7.88;3.00;;;14.90;99.90;;;;;;5020051;28;20059;-90
2023/09/15 08:22:30;;;;;;;10.77;4.63;;;15.00;99.90;;;;;;5020173;28;20036;-89
2023/09/15 08:24:55;;;;;;;7.63;2.55;;;15.10;99.90;;;;;;5020483;28;20037;-88
2023/09/15 08:27:21;;;;;;;9.20;4.28;;;15.20;99.90;;;;;;5036308;28;20056;-89
2023/09/15 08:29:47;;;;;;;8.10;2.80;;;15.30;99.90;;;;;;5019725;28;20048;-89
2023/09/15 08:32:14;;;;;;;11.38;4.65;;;15.40;99.90;;;;;;5024166;28;20109;-89
2023/09/15 08:34:41;;;;;;;7.70;2.55;;;15.50;99.90;;;;;;5036647;28;20044;-89
2023/09/15 08:37:07;;;;;;;9.18;4.38;;;15.60;99.90;;;;;;5036577;28;20447;-89
2023/09/15 08:39:32;;;;;;;12.45;4.93;;;15.70;99.90;;;;;;5019526;28;20059;-89
2023/09/15 08:42:02;;;;;;;9.43;4.47;;;15.80;99.90;;;;;;5036464;28;20048;-89
2023/09/15 08:44:31;;;;;;;10.05;3.92;;;15.90;99.90;;;;;;5036614;28;20047;-89
2023/09/15 08:46:58;;;;;;;10.27;3.90;;;16.00;99.90;;;;;;5019851;28;20037;-89
2023/09/15 08:49:24;;;;;;;15.75;4.90;;;16.10;99.90;;;;;;5018402;28;20064;-89
2023/09/15 08:51:51;;;;;;;8.68;3.00;;;16.30;99.90;;;;;;5042739;28;20426;-89
2023/09/15 08:54:17;;;;;;;8.48;2.88;;;16.30;99.90;;;;;;5037602;28;20480;-89
2023/09/15 08:56:44;;;;;;;10.95;4.93;;;16.40;99.90;;;;;;5035956;28;20048;-89
2023/09/15 08:59:11;;;;;;;16.27;4.88;;;16.50;99.90;;;;;;5019176;28;20048;-90
2023/09/15 09:01:36;;;;;;;16.23;5.45;;;16.60;99.90;;;;;;5035032;28;20045;-89
2023/09/15 09:04:03;;;;;;;11.43;3.55;;;16.70;99.90;;;;;;5032644;28;20041;-89
2023/09/15 09:06:32;;;;;;;13.00;4.28;;;16.80;99.90;;;;;;5036453;28;20036;-89
2023/09/15 09:08:58;;;;;;;10.48;4.70;;;16.90;99.90;;;;;;5019195;28;20131;-89
2023/09/15 09:11:24;;;;;;;12.15;2.92;;;17.00;99.90;;;;;;5019579;28;20089;-89
2023/09/15 09:13:51;;;;;;;9.40;4.20;;;17.00;99.90;;;;;;5036109;28;20496;-89
2023/09/15 09:16:17;;;;;;;10.35;4.10;;;17.20;99.90;;;;;;5035924;28;20553;-89
2023/09/15 09:18:57;;;;;;;10.77;3.95;;;17.20;99.90;;;;;;5035356;28;20508;-90
2023/09/15 09:21:27;;;;;;;9.82;4.00;;;17.40;99.90;;;;;;5035078;28;20045;-89
2023/09/15 09:23:54;;;;;;;12.23;4.03;;;17.40;99.90;;;;;;5035529;28;20045;-89
2023/09/15 09:26:19;;;;;;;10.88;3.00;;;17.60;99.90;;;;;;5052362;28;20080;-89
2023/09/15 09:28:45;;;;;;;9.63;3.85;;;17.60;99.90;;;;;;5018898;28;20032;-89
2023/09/15 09:31:11;;;;;;;9.68;3.97;;;17.70;99.90;;;;;;5035981;28;20087;-90
2023/09/15 09:33:37;;;;;;;12.43;6.53;;;17.80;99.90;;;;;;5019054;28;20546;-89
2023/09/15 09:36:14;;;;;;;8.90;3.67;;;17.90;99.90;;;;;;5018657;28;20045;-89
2023/09/15 09:38:48;;;;;;;9.65;3.28;;;18.00;99.90;;;;;;5018299;28;20090;-89
2023/09/15 09:41:17;;;;;;;9.93;3.80;;;18.10;99.90;;;;;;5036657;28;20420;-88
2023/09/15 09:43:46;;;;;;;10.10;3.97;;;18.10;99.90;;;;;;5032386;28;20515;-88
2023/09/15 09:46:13;;;;;;;9.45;3.22;;;18.20;99.90;;;;;;5034440;28;20033;-89
2023/09/15 09:48:39;;;;;;;10.23;3.75;;;18.30;99.90;;;;;;5030747;28;20046;-89
2023/09/15 09:51:05;;;;;;;9.55;2.97;;;18.40;99.90;;;;;;5017689;28;20036;-88
2023/09/15 09:53:33;;;;;;;9.02;3.22;;;18.50;99.90;;;;;;5027731;28;20037;-89
2023/09/15 09:56:00;;;;;;;8.73;2.97;;;18.60;99.90;;;;;;5034472;28;20204;-89
2023/09/15 09:58:26;;;;;;;11.57;3.60;;;18.70;99.90;;;;;;5023742;28;20041;-88
2023/09/15 10:00:52;;;;;;;8.95;3.40;;;18.80;99.90;;;;;;5027082;28;20040;-88
2023/09/15 10:03:18;;;;;;;9.25;2.72;;;18.90;99.90;;;;;;5035407;28;20466;-89
2023/09/15 10:05:44;;;;;;;7.88;2.97;;;19.00;99.90;;;;;;5035292;28;20033;-89
2023/09/15 10:08:10;;;;;;;10.55;3.45;;;19.10;99.90;;;;;;5035027;28;20559;-89
2023/09/15 10:10:41;;;;;;;9.38;3.25;;;19.10;99.90;;;;;;5035108;28;20033;-88
2023/09/15 10:13:07;;;;;;;9.43;3.25;;;19.20;99.90;;;;;;5034747;28;20041;-89
2023/09/15 10:15:35;;;;;;;9.43;3.15;;;19.30;99.90;;;;;;5018117;28;20041;-88
2023/09/15 10:18:04;;;;;;;10.43;3.22;;;19.40;99.90;;;;;;5033570;28;20045;-89
2023/09/15 10:20:32;;;;;;;10.63;3.17;;;19.40;99.90;;;;;;5017814;28;20053;-89
2023/09/15 10:22:59;;;;;;;8.57;3.00;;;19.50;99.90;;;;;;5050905;28;20041;-88
2023/09/15 10:25:24;;;;;;;9.57;2.92;;;19.60;99.90;;;;;;5034397;28;20419;-89
2023/09/15 10:27:50;;;;;;;8.52;2.83;;;19.70;99.90;;;;;;5034339;28;20037;-89
2023/09/15 10:30:16;;;;;;;10.02;2.88;;;19.80;99.90;;;;;;5029857;28;20209;-87
2023/09/15 10:32:43;;;;;;;9.27;2.75;;;19.90;99.90;;;;;;5057708;28;20127;-89
2023/09/15 10:35:11;;;;;;;8.65;3.00;;;19.90;97.90;;;;;;5046931;28;20053;-89
2023/09/15 10:37:43;;;;;;;8.68;3.22;;;20.00;96.10;;;;;;5026374;28;20041;-89
2023/09/15 10:40:13;;;;;;;8.40;2.60;;;20.00;94.20;;;;;;5035797;28;20037;-88
2023/09/15 10:42:51;;;;;;;7.65;2.38;;;20.10;94.20;;;;;;5045515;28;20082;-89
2023/09/15 10:45:17;;;;;;;7.97;2.25;;;20.20;95.50;;;;;;5036940;28;20029;-89
2023/09/15 10:47:43;;;;;;;10.32;2.95;;;20.20;95.60;;;;;;5035213;28;20511;-89
2023/09/15 10:50:09;;;;;;;8.05;2.55;;;20.30;95.30;;;;;;5017734;28;20044;-89
2023/09/15 10:52:37;;;;;;;9.13;2.58;;;20.40;96.70;;;;;;5034755;28;20041;-89
2023/09/15 10:55:03;;;;;;;7.70;2.42;;;20.50;96.70;;;;;;5031324;28;20092;-89
2023/09/15 10:57:33;;;;;;;8.40;3.10;;;20.60;98.10;;;;;;5033864;28;20049;-89
2023/09/15 10:59:59;;;;;;;9.30;2.90;;;20.70;96.80;;;;;;5016554;28;20036;-89
2023/09/15 11:02:26;;;;;;;7.68;2.70;;;20.80;93.60;;;;;;5015687;28;20041;-89
2023/09/15 11:04:52;;;;;;;10.80;2.60;;;20.90;93.40;;;;;;5008763;28;20856;-89
2023/09/15 11:07:19;;;;;;;8.05;2.80;;;20.90;93.20;;;;;;5024032;28;20047;-89
2023/09/15 11:09:45;;;;;;;8.68;2.53;;;21.10;93.60;;;;;;5033724;28;20155;-88
2023/09/15 11:12:11;;;;;;;7.43;2.38;;;21.20;92.50;;;;;;5031506;28;20049;-89
2023/09/15 11:14:37;;;;;;;8.32;2.50;;;21.30;91.20;;;;;;5052253;28;20033;-89
2023/09/15 11:17:03;;;;;;;9.05;3.05;;;21.30;91.90;;;;;;5016927;28;20385;-90
2023/09/15 11:19:32;;;;;;;10.43;3.40;;;21.40;90.70;;;;;;5033521;28;20060;-90
2023/09/15 11:22:04;;;;;;;8.75;2.78;;;21.50;89.40;;;;;;5032866;28;20045;-90
2023/09/15 11:24:32;;;;;;;10.88;2.70;;;21.40;86.00;;;;;;5032531;28;20049;-90
2023/09/15 11:27:00;;;;;;;8.95;2.42;;;21.40;86.10;;;;;;5050244;28;20044;-90
2023/09/15 11:29:27;;;;;;;9.40;2.75;;;21.50;88.70;;;;;;5016779;28;20041;-90
2023/09/15 11:31:54;;;;;;;9.18;2.63;;;21.60;89.00;;;;;;5016935;28;20037;-90
2023/09/15 11:34:20;;;;;;;9.98;2.90;;;21.70;85.40;;;;;;5033423;28;20159;-90
2023/09/15 11:36:47;;;;;;;7.85;2.60;;;21.70;82.20;;;;;;5017269;28;20497;-90
2023/09/15 11:39:15;;;;;;;10.00;3.35;;;21.80;82.10;;;;;;5016904;28;20522;-90
2023/09/15 11:41:53;;;;;;;10.43;3.22;;;21.90;83.50;;;;;;5033331;28;20048;-90
2023/09/15 11:44:21;;;;;;;10.20;3.13;;;21.90;81.50;;;;;;5016804;28;20792;-90
2023/09/15 11:46:48;;;;;;;7.82;2.65;;;22.00;83.10;;;;;;5033484;28;20041;-90
2023/09/15 11:49:16;;;;;;;7.78;2.63;;;22.10;81.50;;;;;;5033235;28;20068;-91
2023/09/15 11:51:51;;;;;;;9.35;2.60;;;22.20;81.90;;;;;;5033578;28;20041;-90
2023/09/15 11:54:18;;;;;;;10.57;3.10;;;22.30;82.10;;;;;;5017229;28;20067;-92
2023/09/15 11:56:43;;;;;;;8.18;2.72;;;22.40;83.10;;;;;;5033716;28;20115;-90
2023/09/15 11:59:09;;;;;;;9.65;2.78;;;22.40;81.40;;;;;;5016628;28;20512;-90
2023/09/15 12:01:36;;;;;;;8.15;2.65;;;22.30;78.70;;;;;;5033187;28;20539;-91
2023/09/15 12:04:03;;;;;;;8.75;2.88;;;22.40;79.20;;;;;;5032904;28;20435;-90
2023/09/15 12:06:31;;;;;;;9.30;3.03;;;22.40;79.80;;;;;;5016956;28;20037;-91
2023/09/15 12:08:57;;;;;;;11.10;3.05;;;22.50;79.60;;;;;;5030919;28;20041;-90
2023/09/15 12:11:23;;;;;;;9.80;3.50;;;22.70;80.00;;;;;;5014670;28;20033;-91
2023/09/15 12:13:52;;;;;;;8.70;2.80;;;22.70;78.10;;;;;;5014576;28;20037;-91
2023/09/15 12:16:20;;;;;;;8.73;2.70;;;22.80;79.50;;;;;;5031184;28;20095;-90
2023/09/15 12:18:48;;;;;;;8.35;3.00;;;23.00;81.80;;;;;;5031376;28;20048;-91
2023/09/15 12:21:24;;;;;;;10.30;2.95;;;23.10;78.30;;;;;;5020556;28;20087;-91
2023/09/15 12:23:51;;;;;;;7.75;2.70;;;23.20;77.40;;;;;;5038351;28;20106;-91
2023/09/15 12:26:17;;;;;;;9.57;3.15;;;23.30;77.00;;;;;;5040111;28;20065;-91
2023/09/15 12:28:43;;;;;;;10.23;3.17;;;23.50;79.30;;;;;;5035952;28;20041;-91
2023/09/15 12:31:15;;;;;;;9.90;3.10;;;23.60;76.80;;;;;;5033146;28;20044;-91
2023/09/15 12:33:43;;;;;;;9.13;2.83;;;23.80;75.90;;;;;;5033152;28;20119;-90
2023/09/15 12:36:10;;;;;;;10.13;3.03;;;23.90;76.70;;;;;;5033814;28;20041;-91
2023/09/15 12:38:36;;;;;;;9.23;3.20;;;24.10;76.60;;;;;;5033178;28;20115;-90
2023/09/15 12:41:02;;;;;;;8.30;2.92;;;24.20;76.10;;;;;;5016541;28;20554;-90
2023/09/15 12:43:28;;;;;;;9.13;3.17;;;24.30;74.10;;;;;;5019452;28;20037;-90